Time;durP1;ratioP1;P1;durP2;ratioP2;P2;SDS_P1;SDS_P2;PMS_P1;PMS_P2;Temp;Humidity;BMP_temperature;BMP_pressure;BME280_temperature;BME280_humidity;BME280_pressure;Samples;Min_cycle;Max_cycle;Signal;HPM_P1;HPM_P2
2023/09/06 00:00:50;;;;;;;5.80;3.10;;;19.00;99.90;;;;;;5051928;28;20527;-45
2023/09/06 00:03:17;;;;;;;7.47;2.83;;;19.00;99.90;;;;;;5052628;28;20113;-46
2023/09/06 00:05:42;;;;;;;7.20;2.78;;;19.00;99.90;;;;;;5053056;28;20090;-48
2023/09/06 00:08:09;;;;;;;4.28;3.05;;;19.00;99.90;;;;;;5052531;28;20036;-46
2023/09/06 00:10:38;;;;;;;6.03;3.15;;;19.00;99.90;;;;;;5051275;28;20025;-45
2023/09/06 00:13:07;;;;;;;7.43;3.25;;;19.00;99.90;;;;;;5051236;28;20075;-47
2023/09/06 00:15:34;;;;;;;3.92;2.70;;;19.00;99.90;;;;;;5035364;28;20021;-50
2023/09/06 00:18:00;;;;;;;5.55;2.92;;;19.00;99.90;;;;;;5052418;28;20087;-47
2023/09/06 00:20:25;;;;;;;3.67;2.63;;;19.00;99.90;;;;;;5051059;28;20451;-45
2023/09/06 00:23:09;;;;;;;4.65;3.35;;;19.00;99.90;;;;;;5052289;28;20021;-44
2023/09/06 00:25:36;;;;;;;6.15;3.50;;;19.00;99.90;;;;;;5050970;28;20396;-45
2023/09/06 00:28:03;;;;;;;3.30;2.97;;;19.00;99.90;;;;;;5050773;28;20040;-43
2023/09/06 00:30:30;;;;;;;3.83;2.95;;;19.00;99.90;;;;;;5050621;28;20496;-44
2023/09/06 00:32:58;;;;;;;5.43;2.85;;;19.00;99.90;;;;;;5050697;28;20136;-44
2023/09/06 00:35:24;;;;;;;6.00;3.72;;;19.00;99.90;;;;;;5034303;28;20024;-45
2023/09/06 00:37:51;;;;;;;4.40;3.35;;;18.90;99.90;;;;;;5050883;28;20115;-45
2023/09/06 00:40:18;;;;;;;4.00;3.25;;;18.90;99.90;;;;;;5033989;28;20443;-49
2023/09/06 00:42:51;;;;;;;6.60;3.05;;;18.80;99.90;;;;;;5050592;28;20021;-44
2023/09/06 00:45:23;;;;;;;9.45;3.40;;;18.90;99.90;;;;;;5050745;28;20028;-43
2023/09/06 00:47:55;;;;;;;8.63;3.10;;;18.90;99.90;;;;;;5050301;28;20022;-48
2023/09/06 00:50:20;;;;;;;6.65;3.25;;;18.80;99.90;;;;;;5034250;28;20036;-44
2023/09/06 00:52:48;;;;;;;6.28;3.08;;;18.70;99.90;;;;;;5034016;28;20024;-45
2023/09/06 00:55:13;;;;;;;6.60;3.47;;;18.70;99.90;;;;;;5034245;28;20017;-49
2023/09/06 00:57:40;;;;;;;4.28;3.28;;;18.50;99.90;;;;;;5052011;28;20074;-45
2023/09/06 01:00:08;;;;;;;4.25;2.90;;;18.50;99.90;;;;;;5017159;28;20446;-49
2023/09/06 01:02:34;;;;;;;5.47;3.30;;;18.40;99.90;;;;;;5051512;28;20441;-44
2023/09/06 01:05:00;;;;;;;7.30;4.35;;;18.30;99.90;;;;;;5050284;28;20029;-44
2023/09/06 01:07:29;;;;;;;3.33;3.03;;;18.30;99.90;;;;;;5050145;28;20485;-47
2023/09/06 01:09:55;;;;;;;5.38;3.45;;;18.20;99.90;;;;;;5051680;28;20070;-44
2023/09/06 01:12:20;;;;;;;5.13;2.97;;;18.20;99.90;;;;;;5049972;28;20116;-44
2023/09/06 01:14:46;;;;;;;5.93;3.72;;;18.20;99.90;;;;;;5050198;28;20023;-49
2023/09/06 01:17:14;;;;;;;6.32;3.22;;;18.10;99.90;;;;;;5050069;28;20083;-44
2023/09/06 01:19:50;;;;;;;4.40;2.60;;;18.10;99.90;;;;;;5050012;28;20071;-45
2023/09/06 01:22:20;;;;;;;6.75;3.55;;;18.20;99.90;;;;;;5049983;28;20099;-50
2023/09/06 01:24:47;;;;;;;4.80;3.28;;;18.10;99.90;;;;;;5050044;28;20064;-44
2023/09/06 01:27:13;;;;;;;5.07;4.00;;;18.10;99.90;;;;;;5033633;28;20029;-46
2023/09/06 01:29:38;;;;;;;6.30;3.28;;;18.00;99.90;;;;;;5049982;28;20116;-48
2023/09/06 01:32:05;;;;;;;4.40;3.55;;;18.00;99.90;;;;;;5049332;28;20025;-44
2023/09/06 01:34:31;;;;;;;5.63;3.20;;;18.00;99.90;;;;;;5051288;28;20025;-47
2023/09/06 01:36:57;;;;;;;5.82;3.65;;;18.00;99.90;;;;;;5017134;28;20082;-47
2023/09/06 01:39:22;;;;;;;4.30;3.10;;;18.00;99.90;;;;;;5051353;28;20029;-47
2023/09/06 01:41:48;;;;;;;5.07;3.15;;;17.90;99.90;;;;;;5051060;28;20025;-43
2023/09/06 01:44:14;;;;;;;6.18;3.30;;;17.80;99.90;;;;;;5051340;28;20053;-45
2023/09/06 01:46:40;;;;;;;8.68;3.47;;;17.70;99.90;;;;;;5049916;28;20051;-46
2023/09/06 01:49:08;;;;;;;5.68;3.30;;;17.60;99.90;;;;;;5033587;28;20041;-45
2023/09/06 01:51:34;;;;;;;6.32;3.58;;;17.50;99.90;;;;;;5049783;28;20538;-46
2023/09/06 01:54:01;;;;;;;6.20;3.67;;;17.30;99.90;;;;;;5049744;28;20025;-46
2023/09/06 01:56:27;;;;;;;8.38;3.95;;;17.30;99.90;;;;;;5051287;28;20467;-43
2023/09/06 01:58:53;;;;;;;6.28;3.35;;;17.30;99.90;;;;;;5052120;28;20096;-46
2023/09/06 02:01:19;;;;;;;4.93;3.38;;;17.20;99.90;;;;;;5053323;28;20044;-45
2023/09/06 02:03:45;;;;;;;3.78;3.47;;;17.20;99.90;;;;;;5053709;28;20029;-45
2023/09/06 02:06:10;;;;;;;8.00;3.75;;;17.20;99.90;;;;;;5054987;28;20504;-46
2023/09/06 02:08:36;;;;;;;5.20;3.42;;;17.20;99.90;;;;;;5054795;28;20021;-50
2023/09/06 02:11:01;;;;;;;4.38;3.97;;;17.20;99.90;;;;;;5053336;28;20108;-44
2023/09/06 02:13:27;;;;;;;15.07;3.90;;;17.20;99.90;;;;;;5053262;28;20025;-44
2023/09/06 02:15:52;;;;;;;5.80;3.50;;;17.20;99.90;;;;;;5054601;28;20021;-46
2023/09/06 02:18:18;;;;;;;5.15;3.75;;;17.20;99.90;;;;;;5053306;28;20028;-46
2023/09/06 02:20:44;;;;;;;3.80;3.42;;;17.20;99.90;;;;;;5053384;28;20033;-45
2023/09/06 02:23:10;;;;;;;4.38;3.50;;;17.30;99.90;;;;;;5054417;28;20059;-45
2023/09/06 02:25:36;;;;;;;8.32;4.18;;;17.30;99.90;;;;;;5053581;28;20025;-44
2023/09/06 02:28:06;;;;;;;5.38;3.78;;;17.30;99.90;;;;;;5053175;28;20450;-47
2023/09/06 02:30:38;;;;;;;7.30;3.65;;;17.30;99.90;;;;;;5052820;28;20067;-48
2023/09/06 02:33:04;;;;;;;12.18;3.72;;;17.30;99.90;;;;;;5052744;28;20400;-44
2023/09/06 02:35:30;;;;;;;6.10;3.58;;;17.30;99.90;;;;;;5054335;28;20096;-46
2023/09/06 02:37:56;;;;;;;5.28;3.80;;;17.20;99.90;;;;;;5053111;28;20075;-45
2023/09/06 02:40:22;;;;;;;7.38;3.22;;;17.20;99.90;;;;;;5019661;28;20048;-46
2023/09/06 02:42:51;;;;;;;4.15;3.75;;;17.20;99.90;;;;;;5054309;28;20503;-46
2023/09/06 02:45:17;;;;;;;7.32;3.60;;;17.20;99.90;;;;;;5020783;28;20025;-43
2023/09/06 02:47:50;;;;;;;5.93;4.28;;;17.10;99.90;;;;;;5052907;28;20059;-44
2023/09/06 02:50:17;;;;;;;4.38;3.70;;;17.10;99.90;;;;;;5053950;28;20021;-46
2023/09/06 02:52:45;;;;;;;4.78;4.05;;;17.10;99.90;;;;;;5052740;28;20029;-44
2023/09/06 02:55:13;;;;;;;6.63;4.28;;;17.00;99.90;;;;;;5052835;28;20036;-46
2023/09/06 02:57:43;;;;;;;4.30;3.90;;;17.00;99.90;;;;;;5036286;28;20017;-44
2023/09/06 03:00:29;;;;;;;4.43;3.95;;;16.90;99.90;;;;;;5036504;28;20033;-45
2023/09/06 03:03:04;;;;;;;4.72;4.07;;;16.80;99.90;;;;;;5053887;28;20021;-44
2023/09/06 03:05:31;;;;;;;4.93;3.58;;;16.80;99.90;;;;;;5052571;28;20025;-45
2023/09/06 03:07:56;;;;;;;5.30;3.97;;;16.80;99.90;;;;;;5052585;28;20028;-45
2023/09/06 03:10:23;;;;;;;4.88;3.88;;;16.80;99.90;;;;;;5053034;28;20389;-45
2023/09/06 03:12:57;;;;;;;8.88;3.83;;;16.70;99.90;;;;;;5052477;28;20385;-47
2023/09/06 03:15:28;;;;;;;7.00;3.90;;;16.70;99.90;;;;;;5036518;28;20067;-47
2023/09/06 03:17:54;;;;;;;6.25;4.40;;;16.70;99.90;;;;;;5052280;28;20264;-44
2023/09/06 03:20:42;;;;;;;5.47;3.63;;;16.60;99.90;;;;;;5053371;28;20368;-47
2023/09/06 03:23:17;;;;;;;3.83;3.53;;;16.50;99.90;;;;;;5038483;28;20017;-46
2023/09/06 03:25:54;;;;;;;7.63;4.03;;;16.40;99.90;;;;;;5052396;28;20035;-49
2023/09/06 03:28:20;;;;;;;6.60;4.13;;;16.40;99.90;;;;;;5019871;28;20510;-47
2023/09/06 03:30:46;;;;;;;7.47;4.00;;;16.40;99.90;;;;;;5051915;28;20476;-43
2023/09/06 03:33:11;;;;;;;14.10;5.50;;;16.40;99.90;;;;;;5052952;28;20040;-48
2023/09/06 03:35:37;;;;;;;7.55;3.92;;;16.40;99.90;;;;;;5051953;28;20025;-48
2023/09/06 03:38:08;;;;;;;4.97;4.53;;;16.40;99.90;;;;;;5052095;28;20029;-43
2023/09/06 03:40:37;;;;;;;5.85;4.82;;;16.40;99.90;;;;;;5052926;28;20078;-45
2023/09/06 03:43:14;;;;;;;6.13;3.60;;;16.40;99.90;;;;;;5051701;28;20025;-42
2023/09/06 03:45:44;;;;;;;8.98;4.20;;;16.30;99.90;;;;;;5051953;28;20104;-43
2023/09/06 03:48:10;;;;;;;8.60;5.28;;;16.20;99.90;;;;;;5053320;28;20408;-46
2023/09/06 03:50:35;;;;;;;7.53;4.70;;;16.20;99.90;;;;;;5035025;28;20064;-47
2023/09/06 03:53:04;;;;;;;5.50;4.20;;;16.10;99.90;;;;;;5052046;28;20032;-44
2023/09/06 03:55:29;;;;;;;7.57;4.80;;;16.20;99.90;;;;;;5053377;28;20063;-43
2023/09/06 03:57:55;;;;;;;10.05;4.50;;;16.10;99.90;;;;;;5051649;28;20460;-48
2023/09/06 04:00:25;;;;;;;6.35;4.32;;;16.10;99.90;;;;;;5051311;28;20021;-43
2023/09/06 04:02:53;;;;;;;4.50;3.75;;;16.20;99.90;;;;;;5052713;28;20400;-44
2023/09/06 04:05:28;;;;;;;6.07;4.30;;;16.10;99.90;;;;;;5051451;28;20021;-44
2023/09/06 04:07:58;;;;;;;5.00;4.50;;;16.10;99.90;;;;;;5036221;28;20119;-45
2023/09/06 04:10:27;;;;;;;11.05;4.28;;;16.10;99.90;;;;;;5052429;28;20033;-44
2023/09/06 04:12:55;;;;;;;5.22;3.92;;;16.20;99.90;;;;;;5052675;28;20021;-44
2023/09/06 04:15:21;;;;;;;7.32;4.57;;;16.30;99.90;;;;;;5052610;28;20035;-45
2023/09/06 04:17:57;;;;;;;4.57;4.18;;;16.20;99.90;;;;;;5034644;28;20021;-49
2023/09/06 04:20:35;;;;;;;5.78;4.22;;;16.30;99.90;;;;;;5051045;28;20080;-49
2023/09/06 04:23:04;;;;;;;4.95;4.53;;;16.30;99.90;;;;;;5051837;28;20025;-47
2023/09/06 04:25:33;;;;;;;5.85;4.72;;;16.20;99.90;;;;;;5052333;28;20017;-48
2023/09/06 04:28:07;;;;;;;6.25;4.40;;;16.10;99.90;;;;;;5052497;28;20032;-44
2023/09/06 04:30:34;;;;;;;9.73;4.90;;;16.00;99.90;;;;;;5051988;28;20032;-43
2023/09/06 04:32:59;;;;;;;9.13;4.70;;;15.90;99.90;;;;;;5050676;28;20021;-49
2023/09/06 04:35:38;;;;;;;6.75;3.97;;;15.90;99.90;;;;;;5050838;28;20043;-47
2023/09/06 04:38:04;;;;;;;10.30;4.05;;;16.00;99.90;;;;;;5034759;28;20021;-44
2023/09/06 04:40:30;;;;;;;5.32;4.82;;;16.10;99.90;;;;;;5050505;28;20553;-44
2023/09/06 04:42:56;;;;;;;10.05;4.53;;;16.10;99.90;;;;;;5034111;28;20032;-44
2023/09/06 04:45:22;;;;;;;5.93;4.45;;;16.10;99.90;;;;;;5050539;28;20027;-44
2023/09/06 04:47:47;;;;;;;8.45;5.10;;;16.10;99.90;;;;;;5050691;28;20116;-44
2023/09/06 04:50:13;;;;;;;4.65;4.22;;;16.10;99.90;;;;;;5050280;28;20017;-44
2023/09/06 04:52:47;;;;;;;6.47;4.40;;;16.10;99.90;;;;;;5050346;28;20033;-44
2023/09/06 04:55:14;;;;;;;5.72;4.18;;;16.10;99.90;;;;;;5051652;28;20021;-47
2023/09/06 04:57:41;;;;;;;7.55;4.40;;;16.00;99.90;;;;;;5033912;28;20055;-44
2023/09/06 05:00:24;;;;;;;7.47;5.13;;;16.00;99.90;;;;;;5051654;28;20512;-44
2023/09/06 05:02:53;;;;;;;8.15;4.38;;;16.00;99.90;;;;;;5035935;28;20036;-45
2023/09/06 05:05:21;;;;;;;5.38;4.05;;;15.90;99.90;;;;;;5050359;28;20025;-44
2023/09/06 05:07:46;;;;;;;7.72;4.25;;;15.80;99.90;;;;;;5051752;28;20060;-47
2023/09/06 05:10:12;;;;;;;6.07;4.00;;;15.80;99.90;;;;;;5017541;28;20025;-47
2023/09/06 05:12:39;;;;;;;4.55;4.15;;;15.80;99.90;;;;;;5033565;28;20044;-45
2023/09/06 05:15:05;;;;;;;5.28;4.03;;;15.90;99.90;;;;;;5033926;28;20287;-46
2023/09/06 05:17:32;;;;;;;9.77;5.00;;;16.00;99.90;;;;;;5017332;28;20021;-48
2023/09/06 05:20:25;;;;;;;6.07;4.75;;;16.00;99.90;;;;;;5051204;28;20029;-46
2023/09/06 05:22:51;;;;;;;6.57;4.75;;;16.00;99.90;;;;;;5050190;28;20021;-45
2023/09/06 05:25:16;;;;;;;4.78;4.35;;;16.00;99.90;;;;;;5033610;28;20025;-43
2023/09/06 05:27:42;;;;;;;5.25;4.75;;;16.00;99.90;;;;;;5051466;28;20032;-46
2023/09/06 05:30:08;;;;;;;9.27;4.88;;;16.00;99.90;;;;;;5049925;28;20017;-43
2023/09/06 05:32:33;;;;;;;7.38;5.20;;;16.10;99.90;;;;;;5050473;28;20056;-44
2023/09/06 05:34:59;;;;;;;6.22;4.72;;;16.10;99.90;;;;;;5056614;28;20108;-45
2023/09/06 05:37:25;;;;;;;8.75;4.60;;;16.20;99.90;;;;;;5056550;28;20508;-46
2023/09/06 05:39:51;;;;;;;10.35;4.68;;;16.20;99.90;;;;;;5056270;28;20017;-43
2023/09/06 05:42:17;;;;;;;9.35;4.70;;;16.20;99.90;;;;;;5056558;28;20223;-44
2023/09/06 05:44:43;;;;;;;6.97;5.10;;;16.30;99.90;;;;;;5056858;28;20496;-44
2023/09/06 05:47:08;;;;;;;5.80;4.82;;;16.30;99.90;;;;;;5040113;28;20111;-45
2023/09/06 05:49:35;;;;;;;9.02;4.53;;;16.30;99.90;;;;;;5039904;28;20025;-47
2023/09/06 05:52:02;;;;;;;9.80;4.97;;;16.30;99.90;;;;;;5056559;28;20536;-44
2023/09/06 05:54:27;;;;;;;5.68;4.40;;;16.30;99.90;;;;;;5057665;28;20061;-45
2023/09/06 05:56:53;;;;;;;7.38;4.85;;;16.40;99.90;;;;;;5057888;28;20053;-42
2023/09/06 05:59:19;;;;;;;8.00;4.57;;;16.50;99.90;;;;;;5053891;28;20021;-47
2023/09/06 06:01:45;;;;;;;9.55;4.68;;;16.50;99.90;;;;;;5055127;28;20032;-44
2023/09/06 06:04:11;;;;;;;10.85;4.65;;;16.60;99.90;;;;;;5056415;28;20081;-48
2023/09/06 06:06:37;;;;;;;4.60;4.18;;;16.70;99.90;;;;;;5042538;28;20417;-48
2023/09/06 06:09:04;;;;;;;14.63;5.05;;;16.70;99.90;;;;;;5045687;28;20516;-46
2023/09/06 06:11:30;;;;;;;7.32;4.28;;;16.80;99.90;;;;;;5057341;28;20036;-44
2023/09/06 06:13:56;;;;;;;7.10;4.25;;;16.90;99.90;;;;;;5039247;28;20544;-43
2023/09/06 06:16:21;;;;;;;7.38;4.40;;;17.00;99.90;;;;;;5055738;28;20132;-45
2023/09/06 06:18:50;;;;;;;9.73;4.07;;;17.10;99.90;;;;;;5056129;28;20028;-47
2023/09/06 06:21:15;;;;;;;7.47;4.72;;;17.30;99.90;;;;;;5057269;28;20025;-43
2023/09/06 06:23:46;;;;;;;7.18;4.32;;;17.40;99.90;;;;;;5055971;28;20031;-43
2023/09/06 06:26:12;;;;;;;10.63;4.25;;;17.40;99.90;;;;;;5057585;28;20523;-44
2023/09/06 06:28:37;;;;;;;8.15;4.30;;;17.50;99.90;;;;;;5057519;28;20127;-44
2023/09/06 06:31:03;;;;;;;4.68;4.20;;;17.60;99.90;;;;;;5057302;28;20033;-43
2023/09/06 06:33:28;;;;;;;8.40;5.57;;;17.70;99.90;;;;;;5056160;28;20025;-43
2023/09/06 06:35:54;;;;;;;4.38;4.00;;;17.90;99.90;;;;;;5060873;28;20013;-46
2023/09/06 06:38:20;;;;;;;6.32;4.03;;;18.00;99.90;;;;;;5058960;28;20032;-44
2023/09/06 06:40:45;;;;;;;5.50;3.97;;;18.20;99.90;;;;;;5059861;28;20513;-42
2023/09/06 06:43:12;;;;;;;5.05;3.90;;;18.40;99.90;;;;;;5050907;28;20403;-43
2023/09/06 06:45:37;;;;;;;7.88;4.50;;;18.50;99.90;;;;;;5058434;28;20063;-45
2023/09/06 06:48:03;;;;;;;9.05;4.57;;;18.90;99.90;;;;;;5039272;28;20025;-43
2023/09/06 06:50:28;;;;;;;7.93;4.43;;;19.20;99.90;;;;;;5054171;28;20040;-46
2023/09/06 06:52:54;;;;;;;9.45;3.97;;;19.60;99.90;;;;;;5053011;28;20120;-47
2023/09/06 06:55:20;;;;;;;7.00;3.67;;;19.90;99.90;;;;;;5053062;28;20037;-42
2023/09/06 06:57:46;;;;;;;8.25;3.83;;;20.50;99.90;;;;;;5053197;28;20032;-42
2023/09/06 07:00:17;;;;;;;8.85;3.78;;;21.10;99.90;;;;;;5036034;28;20502;-43
2023/09/06 07:02:43;;;;;;;4.47;3.58;;;21.70;99.90;;;;;;5052413;28;20032;-49
2023/09/06 07:05:08;;;;;;;4.00;3.67;;;22.50;99.90;;;;;;5052878;28;20028;-44
2023/09/06 07:07:34;;;;;;;3.60;3.00;;;23.30;99.90;;;;;;5052460;28;20017;-43
2023/09/06 07:09:59;;;;;;;7.95;3.55;;;24.00;99.90;;;;;;5052424;28;20377;-45
2023/09/06 07:12:25;;;;;;;4.35;3.20;;;24.50;99.90;;;;;;5053862;28;20049;-47
2023/09/06 07:14:51;;;;;;;5.07;3.03;;;24.70;99.90;;;;;;5035847;28;20025;-46
2023/09/06 07:17:17;;;;;;;6.13;3.88;;;25.30;99.90;;;;;;5052924;28;20025;-49
2023/09/06 07:19:43;;;;;;;5.40;4.15;;;26.00;99.90;;;;;;5052173;28;20017;-47
2023/09/06 07:22:09;;;;;;;6.95;3.70;;;26.40;99.90;;;;;;5053348;28;20025;-45
2023/09/06 07:24:34;;;;;;;8.38;3.67;;;26.70;99.80;;;;;;5053616;28;20457;-49
2023/09/06 07:27:00;;;;;;;3.35;3.05;;;27.20;99.00;;;;;;5053916;28;20032;-49
2023/09/06 07:29:26;;;;;;;7.07;3.20;;;27.10;98.70;;;;;;5053096;28;20102;-49
2023/09/06 07:31:51;;;;;;;4.22;3.17;;;27.40;98.90;;;;;;5051782;28;20025;-46
2023/09/06 07:34:17;;;;;;;4.75;3.08;;;27.70;98.80;;;;;;5053940;28;20446;-47
2023/09/06 07:36:43;;;;;;;3.90;2.88;;;28.10;98.00;;;;;;5051983;28;20452;-45
2023/09/06 07:39:09;;;;;;;7.38;3.35;;;28.40;96.70;;;;;;5053099;28;20033;-50
2023/09/06 07:41:34;;;;;;;3.03;2.72;;;28.40;96.00;;;;;;5053262;28;20389;-47
2023/09/06 07:44:00;;;;;;;10.55;3.25;;;27.90;96.80;;;;;;5051738;28;20507;-49
2023/09/06 07:46:28;;;;;;;13.13;2.85;;;27.60;95.90;;;;;;5049606;28;20037;-47
2023/09/06 07:48:54;;;;;;;3.72;3.30;;;27.30;96.30;;;;;;5051385;28;20108;-46
2023/09/06 07:51:20;;;;;;;4.30;2.83;;;27.40;95.70;;;;;;5051126;28;20136;-48
2023/09/06 07:53:45;;;;;;;4.00;2.83;;;27.60;95.40;;;;;;5052792;28;20100;-44
2023/09/06 07:56:11;;;;;;;4.80;3.42;;;27.80;95.60;;;;;;5048761;28;20044;-48
2023/09/06 07:58:37;;;;;;;3.83;2.63;;;27.70;95.30;;;;;;5050055;28;20491;-50
2023/09/06 08:01:04;;;;;;;3.17;2.88;;;28.20;95.30;;;;;;5048305;28;20044;-47
2023/09/06 08:03:29;;;;;;;3.78;3.00;;;28.80;93.60;;;;;;5015491;28;20029;-45
2023/09/06 08:05:55;;;;;;;6.50;3.20;;;28.70;93.30;;;;;;5015055;28;20034;-46
2023/09/06 08:08:20;;;;;;;6.75;2.67;;;28.70;93.30;;;;;;5015102;28;20100;-44
2023/09/06 08:10:46;;;;;;;3.58;3.28;;;28.70;93.30;;;;;;5031666;28;20037;-46
2023/09/06 08:13:12;;;;;;;6.88;3.10;;;27.90;93.20;;;;;;5035778;28;20025;-53
2023/09/06 08:15:38;;;;;;;3.90;2.85;;;27.60;94.00;;;;;;5050760;28;20502;-46
2023/09/06 08:18:04;;;;;;;3.67;3.10;;;28.40;93.50;;;;;;5052662;28;20028;-47
2023/09/06 08:20:31;;;;;;;7.88;3.40;;;28.50;92.80;;;;;;5050946;28;20035;-45
2023/09/06 08:22:57;;;;;;;4.25;3.00;;;28.60;92.30;;;;;;5051157;28;20029;-47
2023/09/06 08:25:23;;;;;;;7.00;3.03;;;28.80;92.40;;;;;;5018100;28;20071;-47
2023/09/06 08:27:51;;;;;;;7.07;3.08;;;28.70;92.40;;;;;;5052074;28;20100;-46
2023/09/06 08:30:19;;;;;;;5.03;3.30;;;28.80;92.10;;;;;;5033958;28;20056;-46
2023/09/06 08:32:51;;;;;;;5.00;3.60;;;28.60;92.40;;;;;;5050762;28;20524;-48
2023/09/06 08:35:20;;;;;;;3.58;2.92;;;28.80;92.30;;;;;;5050051;28;20112;-47
2023/09/06 08:37:48;;;;;;;3.47;2.85;;;29.30;91.50;;;;;;5051573;28;20086;-48
2023/09/06 08:40:15;;;;;;;6.78;4.43;;;29.50;91.20;;;;;;5051995;28;20049;-48
2023/09/06 08:42:43;;;;;;;4.80;3.20;;;29.20;91.30;;;;;;5052268;28;20403;-49
2023/09/06 08:45:09;;;;;;;3.67;2.97;;;28.80;91.50;;;;;;5052211;28;20024;-47
2023/09/06 08:47:40;;;;;;;3.30;3.00;;;29.10;91.30;;;;;;5052043;28;20415;-51
2023/09/06 08:50:09;;;;;;;4.45;3.05;;;28.10;91.70;;;;;;5051928;28;20017;-46
2023/09/06 08:52:38;;;;;;;4.13;3.15;;;28.40;92.00;;;;;;5051489;28;20044;-47
2023/09/06 08:55:05;;;;;;;3.30;3.00;;;28.60;91.80;;;;;;5051970;28;20024;-48
2023/09/06 08:57:31;;;;;;;5.40;3.65;;;28.00;91.40;;;;;;5050546;28;20460;-48
2023/09/06 08:59:58;;;;;;;4.13;3.00;;;28.20;92.20;;;;;;5051499;28;20060;-46
2023/09/06 09:02:23;;;;;;;3.58;2.78;;;28.70;91.40;;;;;;5051540;28;20037;-48
2023/09/06 09:04:49;;;;;;;6.05;2.97;;;29.30;90.90;;;;;;5051693;28;20476;-50
2023/09/06 09:07:18;;;;;;;4.88;2.80;;;29.40;90.70;;;;;;5050765;28;20040;-45
2023/09/06 09:10:09;;;;;;;4.47;2.85;;;29.40;90.80;;;;;;5050819;28;20112;-44
2023/09/06 09:12:36;;;;;;;4.25;2.80;;;28.80;90.40;;;;;;5033760;28;20103;-49
2023/09/06 09:15:03;;;;;;;3.20;2.90;;;28.50;91.30;;;;;;5051514;28;20033;-47
2023/09/06 09:17:30;;;;;;;3.08;2.78;;;28.20;91.70;;;;;;5050047;28;20392;-46
2023/09/06 09:19:57;;;;;;;10.98;4.18;;;27.90;91.90;;;;;;5049894;28;20125;-51
2023/09/06 09:22:27;;;;;;;4.93;3.67;;;27.40;92.10;;;;;;5051383;28;20075;-47
2023/09/06 09:25:02;;;;;;;5.80;3.92;;;26.60;93.50;;;;;;5049002;28;20413;-45
2023/09/06 09:27:28;;;;;;;10.93;6.82;;;26.10;93.90;;;;;;5047838;28;20535;-44
2023/09/06 09:29:55;;;;;;;10.00;3.25;;;26.00;94.90;;;;;;5050032;28;20075;-45
2023/09/06 09:32:21;;;;;;;6.50;3.42;;;25.90;95.00;;;;;;5049058;28;20033;-44
2023/09/06 09:34:47;;;;;;;3.83;3.35;;;25.90;95.30;;;;;;5040540;28;20040;-41
2023/09/06 09:37:13;;;;;;;4.18;3.42;;;26.00;95.20;;;;;;5030970;28;20026;-47
2023/09/06 09:39:38;;;;;;;6.03;3.40;;;26.00;94.80;;;;;;5028550;28;20033;-52
2023/09/06 09:42:08;;;;;;;6.38;3.63;;;25.70;95.20;;;;;;5028829;28;20025;-50
2023/09/06 09:44:34;;;;;;;7.53;3.50;;;25.60;95.40;;;;;;5044145;28;20140;-46
2023/09/06 09:47:12;;;;;;;3.72;3.17;;;25.70;95.60;;;;;;5051596;28;20049;-46
2023/09/06 09:49:40;;;;;;;5.30;3.58;;;25.50;95.30;;;;;;5049907;28;20033;-44
2023/09/06 09:52:10;;;;;;;5.35;3.47;;;25.40;95.70;;;;;;5050827;28;20063;-45
2023/09/06 09:54:40;;;;;;;11.32;3.90;;;25.40;95.60;;;;;;5050021;28;20160;-47
2023/09/06 09:57:06;;;;;;;3.80;3.17;;;25.20;95.80;;;;;;5050477;28;20063;-49
2023/09/06 09:59:37;;;;;;;2.97;2.78;;;25.30;95.90;;;;;;5048505;28;20029;-45
2023/09/06 10:02:05;;;;;;;3.85;3.47;;;25.30;95.90;;;;;;5033094;28;20040;-48
2023/09/06 10:04:36;;;;;;;3.10;2.90;;;25.30;95.80;;;;;;5049903;28;20032;-47
2023/09/06 10:07:04;;;;;;;3.80;2.97;;;25.30;96.00;;;;;;5033985;28;20040;-49
2023/09/06 10:09:32;;;;;;;5.55;2.95;;;25.20;96.00;;;;;;5050170;28;20401;-44
2023/09/06 10:12:00;;;;;;;4.90;3.35;;;25.40;96.10;;;;;;5032986;28;20025;-45
2023/09/06 10:14:26;;;;;;;4.85;2.97;;;25.30;95.90;;;;;;5049663;28;20435;-48
2023/09/06 10:16:52;;;;;;;4.10;3.45;;;25.30;95.50;;;;;;5049747;28;20385;-45
2023/09/06 10:19:19;;;;;;;6.80;2.75;;;25.20;95.20;;;;;;5049385;28;20480;-46
2023/09/06 10:21:46;;;;;;;7.30;3.22;;;25.10;95.30;;;;;;5053318;28;20395;-44
2023/09/06 10:24:19;;;;;;;5.25;3.75;;;25.20;95.80;;;;;;5053631;28;20032;-47
2023/09/06 10:26:49;;;;;;;7.30;3.10;;;25.30;95.50;;;;;;5053723;28;20107;-46
2023/09/06 10:29:24;;;;;;;3.20;2.90;;;25.40;95.10;;;;;;5054648;28;20029;-47
2023/09/06 10:31:52;;;;;;;3.42;2.83;;;25.40;94.80;;;;;;5053999;28;20032;-51
2023/09/06 10:34:18;;;;;;;3.47;2.72;;;25.50;94.60;;;;;;5053318;28;20054;-49
2023/09/06 10:37:00;;;;;;;7.53;3.88;;;25.50;95.50;;;;;;5053584;28;20025;-49
2023/09/06 10:39:28;;;;;;;5.85;3.28;;;25.60;94.40;;;;;;5053753;28;20071;-47
2023/09/06 10:42:09;;;;;;;4.47;3.17;;;25.30;94.50;;;;;;5055882;28;20025;-45
2023/09/06 10:44:53;;;;;;;3.70;3.40;;;25.30;94.30;;;;;;5053583;28;20497;-45
2023/09/06 10:47:30;;;;;;;3.28;2.97;;;25.40;94.50;;;;;;5054730;28;20036;-46
2023/09/06 10:50:20;;;;;;;6.00;4.15;;;25.50;95.30;;;;;;5052920;28;20159;-46
2023/09/06 10:52:58;;;;;;;4.50;3.50;;;25.50;95.00;;;;;;5053887;28;20036;-44
2023/09/06 10:55:30;;;;;;;6.97;3.97;;;25.40;95.00;;;;;;5052847;28;20029;-44
2023/09/06 10:57:58;;;;;;;5.90;2.80;;;25.50;96.00;;;;;;5052832;28;20025;-44
2023/09/06 11:00:26;;;;;;;6.90;3.47;;;25.50;95.50;;;;;;5053919;28;20115;-43
2023/09/06 11:03:07;;;;;;;4.13;3.50;;;25.60;95.40;;;;;;5052909;28;20025;-47
2023/09/06 11:05:35;;;;;;;6.28;3.42;;;25.60;95.30;;;;;;5052705;28;20054;-44
2023/09/06 11:08:02;;;;;;;3.50;3.15;;;25.70;95.40;;;;;;5053569;28;20029;-49
2023/09/06 11:10:28;;;;;;;5.50;3.40;;;25.70;94.30;;;;;;5052381;28;20025;-48
2023/09/06 11:13:07;;;;;;;3.45;3.03;;;25.70;94.80;;;;;;5052410;28;20037;-46
2023/09/06 11:15:35;;;;;;;3.70;3.10;;;25.80;95.10;;;;;;5052796;28;20021;-44
2023/09/06 11:18:02;;;;;;;5.22;2.83;;;25.80;94.80;;;;;;5054314;28;20040;-44
2023/09/06 11:20:29;;;;;;;4.38;2.88;;;25.90;95.10;;;;;;5052414;28;20028;-49
2023/09/06 11:22:58;;;;;;;7.57;3.17;;;25.80;94.60;;;;;;5052529;28;20017;-49
2023/09/06 11:25:25;;;;;;;7.20;3.35;;;25.80;95.10;;;;;;5035982;28;20022;-44
2023/09/06 11:27:55;;;;;;;5.88;3.28;;;25.80;95.40;;;;;;5053879;28;20033;-45
2023/09/06 11:30:21;;;;;;;7.18;3.03;;;25.90;95.40;;;;;;5051843;28;20024;-46
2023/09/06 11:32:51;;;;;;;5.43;3.10;;;26.00;95.30;;;;;;5053771;28;20048;-46
2023/09/06 11:35:26;;;;;;;5.40;3.53;;;26.00;94.60;;;;;;5052209;28;20058;-50
2023/09/06 11:37:54;;;;;;;6.55;3.78;;;26.00;94.80;;;;;;5036337;28;20028;-45
2023/09/06 11:40:21;;;;;;;4.07;3.00;;;26.00;95.40;;;;;;5035210;28;20028;-43
2023/09/06 11:42:53;;;;;;;6.55;3.15;;;26.10;94.40;;;;;;5051965;28;20504;-46
2023/09/06 11:45:21;;;;;;;7.57;3.05;;;26.10;94.50;;;;;;5053126;28;20036;-50
2023/09/06 11:47:47;;;;;;;7.25;2.60;;;26.20;94.10;;;;;;5052125;28;20036;-44
2023/09/06 11:50:19;;;;;;;7.05;3.22;;;26.20;94.20;;;;;;5053040;28;20033;-46
2023/09/06 11:52:49;;;;;;;7.80;3.30;;;26.10;94.40;;;;;;5053517;28;20029;-47
2023/09/06 11:55:18;;;;;;;5.32;3.15;;;26.10;94.20;;;;;;5053024;28;20031;-48
2023/09/06 11:57:52;;;;;;;5.15;3.20;;;26.10;94.00;;;;;;5051860;28;20116;-43
2023/09/06 12:00:28;;;;;;;3.60;3.00;;;26.10;94.40;;;;;;5035604;28;20025;-43
2023/09/06 12:03:07;;;;;;;4.30;2.80;;;26.20;94.20;;;;;;5052772;28;20021;-46
2023/09/06 12:05:38;;;;;;;3.17;2.85;;;26.20;94.20;;;;;;5051491;28;20709;-47
2023/09/06 12:08:05;;;;;;;3.45;3.15;;;26.20;94.00;;;;;;5052082;28;20514;-45
2023/09/06 12:10:34;;;;;;;3.28;2.97;;;26.20;94.20;;;;;;5051205;28;20025;-45
2023/09/06 12:13:00;;;;;;;4.40;3.25;;;26.30;94.50;;;;;;5052488;28;20067;-51
2023/09/06 12:15:25;;;;;;;5.22;2.80;;;26.30;94.90;;;;;;5051567;28;20017;-49
2023/09/06 12:17:51;;;;;;;3.33;2.67;;;26.30;94.50;;;;;;5018356;28;20017;-44
2023/09/06 12:20:23;;;;;;;5.85;3.00;;;26.30;94.10;;;;;;5052663;28;20496;-46
2023/09/06 12:22:52;;;;;;;4.70;2.80;;;26.40;94.00;;;;;;5052694;28;20021;-41
2023/09/06 12:25:19;;;;;;;2.78;2.58;;;26.40;93.90;;;;;;5051590;28;20074;-50
2023/09/06 12:27:48;;;;;;;5.95;3.13;;;26.40;93.80;;;;;;5034718;28;20048;-47
2023/09/06 12:30:18;;;;;;;2.92;2.72;;;26.40;94.00;;;;;;5052221;28;20032;-47
2023/09/06 12:32:44;;;;;;;3.13;2.83;;;26.50;94.00;;;;;;5052829;28;20032;-46
2023/09/06 12:35:10;;;;;;;2.95;2.75;;;26.60;93.40;;;;;;5034822;28;20519;-45
2023/09/06 12:37:37;;;;;;;5.97;2.70;;;26.60;93.50;;;;;;5051689;28;20067;-45
2023/09/06 12:40:10;;;;;;;3.72;2.83;;;26.60;93.20;;;;;;5051607;28;20029;-46
2023/09/06 12:42:46;;;;;;;8.50;6.93;;;26.70;92.90;;;;;;5050786;28;20378;-46
2023/09/06 12:45:30;;;;;;;8.00;5.95;;;26.70;92.40;;;;;;5051838;28;20068;-47
2023/09/06 12:47:57;;;;;;;4.18;2.80;;;26.80;92.70;;;;;;5051074;28;20055;-46
2023/09/06 12:50:24;;;;;;;3.03;2.50;;;26.80;93.00;;;;;;5050628;28;20032;-46